Time;durP1;ratioP1;P1;durP2;ratioP2;P2;SDS_P1;SDS_P2;PMS_P1;PMS_P2;Temp;Humidity;BMP_temperature;BMP_pressure;BME280_temperature;BME280_humidity;BME280_pressure;Samples;Min_cycle;Max_cycle;Signal;HPM_P1;HPM_P2
2021/06/20 00:00:34;;;;;;;;;;;16.30;91.40;;;;;;5034172;28;20122;-69
2021/06/20 00:03:00;;;;;;;;;;;16.30;91.50;;;;;;5035495;28;19962;-69
2021/06/20 00:05:28;;;;;;;;;;;16.30;91.40;;;;;;5035192;28;20364;-69
2021/06/20 00:07:54;;;;;;;;;;;16.40;91.50;;;;;;5035211;28;19924;-69
2021/06/20 00:10:23;;;;;;;;;;;16.40;91.50;;;;;;5033862;28;20350;-70
2021/06/20 00:12:49;;;;;;;;;;;16.40;91.30;;;;;;5034137;28;20157;-69
2021/06/20 00:15:15;;;;;;;;;;;16.40;91.40;;;;;;5035182;28;20415;-69
2021/06/20 00:17:40;;;;;;;;;;;16.30;91.40;;;;;;5033863;28;19930;-69
2021/06/20 00:20:06;;;;;;;;;;;16.30;91.60;;;;;;5033896;28;19920;-69
2021/06/20 00:22:32;;;;;;;;;;;16.30;91.70;;;;;;5033469;28;20044;-69
2021/06/20 00:24:58;;;;;;;;;;;16.30;91.60;;;;;;5033788;28;20481;-69
2021/06/20 00:27:23;;;;;;;;;;;16.30;91.60;;;;;;5033512;28;19925;-69
2021/06/20 00:29:49;;;;;;;;;;;16.30;91.60;;;;;;5034884;28;19929;-69
2021/06/20 00:32:14;;;;;;;;;;;16.30;91.60;;;;;;5034922;28;20391;-69
2021/06/20 00:34:40;;;;;;;;;;;16.30;91.50;;;;;;5034666;28;19922;-69
2021/06/20 00:37:06;;;;;;;;;;;16.30;91.50;;;;;;5034546;28;19958;-69
2021/06/20 00:39:32;;;;;;;;;;;16.30;91.40;;;;;;5034491;28;20421;-69
2021/06/20 00:41:57;;;;;;;;;;;16.30;91.40;;;;;;5033453;28;19961;-69
2021/06/20 00:44:23;;;;;;;;;;;16.20;91.50;;;;;;5033599;28;19946;-69
2021/06/20 00:46:48;;;;;;;;;;;16.10;91.50;;;;;;5034131;28;19927;-69
2021/06/20 00:49:14;;;;;;;;;;;16.20;91.50;;;;;;5034057;28;19986;-69
2021/06/20 00:51:39;;;;;;;;;;;16.20;91.50;;;;;;5034301;28;19921;-69
2021/06/20 00:54:05;;;;;;;;;;;16.10;91.50;;;;;;5034622;28;19930;-69
2021/06/20 00:56:32;;;;;;;;;;;16.10;91.50;;;;;;5034152;28;19937;-70
2021/06/20 00:59:04;;;;;;;;;;;16.10;91.50;;;;;;5032983;28;19922;-69
2021/06/20 01:01:33;;;;;;;;;;;16.10;91.50;;;;;;5033220;28;19966;-69
2021/06/20 01:03:58;;;;;;;;;;;16.10;91.40;;;;;;5033281;28;20009;-69
2021/06/20 01:06:24;;;;;;;;;;;16.10;91.50;;;;;;5032901;28;20022;-69
2021/06/20 01:08:49;;;;;;;;;;;16.00;91.50;;;;;;5034174;28;19929;-69
2021/06/20 01:11:15;;;;;;;;;;;16.00;91.50;;;;;;5033938;28;19959;-69
2021/06/20 01:13:42;;;;;;;;;;;15.90;91.60;;;;;;5033083;28;19923;-70
2021/06/20 01:16:07;;;;;;;;;;;15.90;91.60;;;;;;5032767;28;19930;-69
2021/06/20 01:18:33;;;;;;;;;;;15.90;91.60;;;;;;5033866;28;19955;-69
2021/06/20 01:20:58;;;;;;;;;;;15.90;91.70;;;;;;5032664;28;19934;-69
2021/06/20 01:23:24;;;;;;;;;;;15.90;91.70;;;;;;5033820;28;19965;-69
2021/06/20 01:25:51;;;;;;;;;;;15.90;91.70;;;;;;5033634;28;19951;-69
2021/06/20 01:28:17;;;;;;;;;;;15.90;91.60;;;;;;5033617;28;20019;-70
2021/06/20 01:30:44;;;;;;;;;;;15.90;91.60;;;;;;5033637;28;19973;-69
2021/06/20 01:33:10;;;;;;;;;;;15.90;91.60;;;;;;5032479;28;20009;-69
2021/06/20 01:35:35;;;;;;;;;;;15.90;91.70;;;;;;5033587;28;20201;-69
2021/06/20 01:38:02;;;;;;;;;;;15.80;91.70;;;;;;5032265;28;19923;-69
2021/06/20 01:40:27;;;;;;;;;;;15.80;91.70;;;;;;5032139;28;19938;-69
2021/06/20 01:42:53;;;;;;;;;;;15.70;91.80;;;;;;5032335;28;20313;-69
2021/06/20 01:45:19;;;;;;;;;;;15.70;91.80;;;;;;5032229;28;20004;-69
2021/06/20 01:47:44;;;;;;;;;;;15.70;91.80;;;;;;5033303;28;19966;-69
2021/06/20 01:50:11;;;;;;;;;;;15.70;91.70;;;;;;5033322;28;19924;-69
2021/06/20 01:52:37;;;;;;;;;;;15.60;91.70;;;;;;5032126;28;20383;-69
2021/06/20 01:55:02;;;;;;;;;;;15.60;91.90;;;;;;5032192;28;19932;-69
2021/06/20 01:57:29;;;;;;;;;;;15.60;91.90;;;;;;5031730;28;20371;-69
2021/06/20 01:59:55;;;;;;;;;;;15.50;92.30;;;;;;5033114;28;20200;-70
2021/06/20 02:02:21;;;;;;;;;;;15.30;92.50;;;;;;5032372;28;20321;-69
2021/06/20 02:04:46;;;;;;;;;;;15.30;92.70;;;;;;5032021;28;20001;-70
2021/06/20 02:07:12;;;;;;;;;;;15.30;92.90;;;;;;5032809;28;19932;-69
2021/06/20 02:09:37;;;;;;;;;;;15.20;92.90;;;;;;5031702;28;19969;-69
2021/06/20 02:12:06;;;;;;;;;;;15.10;93.10;;;;;;5031732;28;19984;-69
2021/06/20 02:14:32;;;;;;;;;;;15.10;93.30;;;;;;5031958;28;19977;-69
2021/06/20 02:16:58;;;;;;;;;;;15.10;93.30;;;;;;5031879;28;19926;-69
2021/06/20 02:19:24;;;;;;;;;;;15.10;93.40;;;;;;5032871;28;20034;-69
2021/06/20 02:21:49;;;;;;;;;;;15.10;93.70;;;;;;5032505;28;19931;-69
2021/06/20 02:24:15;;;;;;;;;;;15.00;93.40;;;;;;5031990;28;19996;-69
2021/06/20 02:26:41;;;;;;;;;;;15.10;93.60;;;;;;5031384;28;19975;-69
2021/06/20 02:29:06;;;;;;;;;;;15.00;93.70;;;;;;5032708;28;19970;-69
2021/06/20 02:31:32;;;;;;;;;;;15.00;93.90;;;;;;5032637;28;19929;-69
2021/06/20 02:33:57;;;;;;;;;;;14.90;94.00;;;;;;5032895;28;19922;-69
2021/06/20 02:36:23;;;;;;;;;;;14.90;94.00;;;;;;5032562;28;19929;-69
2021/06/20 02:38:48;;;;;;;;;;;14.90;93.90;;;;;;5032375;28;19950;-69
2021/06/20 02:41:14;;;;;;;;;;;14.90;93.70;;;;;;5032214;28;20275;-69
2021/06/20 02:43:39;;;;;;;;;;;14.90;93.50;;;;;;5032828;28;20460;-69
2021/06/20 02:46:05;;;;;;;;;;;15.00;93.80;;;;;;5032271;28;19947;-69
2021/06/20 02:48:30;;;;;;;;;;;15.00;93.80;;;;;;5031026;28;19926;-69
2021/06/20 02:50:56;;;;;;;;;;;14.90;93.80;;;;;;5032382;28;19921;-69
2021/06/20 02:53:21;;;;;;;;;;;15.00;93.60;;;;;;5032748;28;19962;-70
2021/06/20 02:55:47;;;;;;;;;;;15.00;93.90;;;;;;5032298;28;20309;-69
2021/06/20 02:58:12;;;;;;;;;;;15.00;93.50;;;;;;5032212;28;19927;-69
2021/06/20 03:00:38;;;;;;;;;;;15.10;93.40;;;;;;5031220;28;19921;-69
2021/06/20 03:03:03;;;;;;;;;;;15.10;93.60;;;;;;5032880;28;19921;-68
2021/06/20 03:05:29;;;;;;;;;;;15.20;93.20;;;;;;5032402;28;20307;-69
2021/06/20 03:07:54;;;;;;;;;;;15.10;93.30;;;;;;5032231;28;20020;-69
2021/06/20 03:10:20;;;;;;;;;;;15.10;93.30;;;;;;5032068;28;20339;-69
2021/06/20 03:12:45;;;;;;;;;;;15.10;93.40;;;;;;5033123;28;19924;-69
2021/06/20 03:15:11;;;;;;;;;;;15.10;93.40;;;;;;5036359;28;19924;-69
2021/06/20 03:17:36;;;;;;;;;;;15.20;93.20;;;;;;5034847;28;20129;-69
2021/06/20 03:20:02;;;;;;;;;;;15.10;93.20;;;;;;5036044;28;20022;-69
2021/06/20 03:22:28;;;;;;;;;;;15.10;93.20;;;;;;5035891;28;20410;-69
2021/06/20 03:24:53;;;;;;;;;;;15.20;93.20;;;;;;5036292;28;19948;-69
2021/06/20 03:27:19;;;;;;;;;;;15.20;93.00;;;;;;5036308;28;19927;-69
2021/06/20 03:29:47;;;;;;;;;;;15.20;93.10;;;;;;5035999;28;19948;-69
2021/06/20 03:32:13;;;;;;;;;;;15.20;93.00;;;;;;5034627;28;19972;-69
2021/06/20 03:34:39;;;;;;;;;;;15.30;93.00;;;;;;5034746;28;19937;-69
2021/06/20 03:37:04;;;;;;;;;;;15.30;92.90;;;;;;5035887;28;19927;-70
2021/06/20 03:39:30;;;;;;;;;;;15.30;93.00;;;;;;5035713;28;19920;-69
2021/06/20 03:41:56;;;;;;;;;;;15.30;92.80;;;;;;5035478;28;20061;-69
2021/06/20 03:44:21;;;;;;;;;;;15.30;92.90;;;;;;5035857;28;19940;-69
2021/06/20 03:46:47;;;;;;;;;;;15.30;92.80;;;;;;5034116;28;19930;-70
2021/06/20 03:49:12;;;;;;;;;;;15.30;92.90;;;;;;5035636;28;19924;-69
2021/06/20 03:51:38;;;;;;;;;;;15.30;92.80;;;;;;5034123;28;20395;-69
2021/06/20 03:54:03;;;;;;;;;;;15.30;92.80;;;;;;5034396;28;19927;-69
2021/06/20 03:56:29;;;;;;;;;;;15.20;92.90;;;;;;5035357;28;20431;-69
2021/06/20 03:58:54;;;;;;;;;;;15.20;92.90;;;;;;5035174;28;19920;-69
2021/06/20 04:01:20;;;;;;;;;;;15.10;93.00;;;;;;5035194;28;19945;-69
2021/06/20 04:03:46;;;;;;;;;;;15.10;93.00;;;;;;5035389;28;20024;-69
2021/06/20 04:06:11;;;;;;;;;;;15.10;93.00;;;;;;5035267;28;19988;-69
2021/06/20 04:08:37;;;;;;;;;;;15.00;93.10;;;;;;5035220;28;19963;-69
2021/06/20 04:11:02;;;;;;;;;;;15.00;93.20;;;;;;5050095;28;19976;-69
2021/06/20 04:13:27;;;;;;;;;;;15.00;93.20;;;;;;5034974;28;19922;-69
2021/06/20 04:15:53;;;;;;;;;;;15.00;93.20;;;;;;5035241;28;19928;-69
2021/06/20 04:18:18;;;;;;;;;;;15.00;93.30;;;;;;5035109;28;20370;-69
2021/06/20 04:20:44;;;;;;;;;;;15.10;93.20;;;;;;5034926;28;19932;-69
2021/06/20 04:23:10;;;;;;;;;;;15.10;93.20;;;;;;5049825;28;20048;-69
2021/06/20 04:25:36;;;;;;;;;;;15.10;93.20;;;;;;5034033;28;20370;-69
2021/06/20 04:28:01;;;;;;;;;;;15.10;93.10;;;;;;5033797;28;19925;-69
2021/06/20 04:30:27;;;;;;;;;;;15.10;93.10;;;;;;5033737;28;19921;-69
2021/06/20 04:32:53;;;;;;;;;;;15.20;93.10;;;;;;5033224;28;19923;-69
2021/06/20 04:35:18;;;;;;;;;;;15.20;93.00;;;;;;5035054;28;19921;-69
2021/06/20 04:37:44;;;;;;;;;;;15.20;93.20;;;;;;5033475;28;19923;-69
2021/06/20 04:40:13;;;;;;;;;;;15.20;92.90;;;;;;5034580;28;19932;-69
2021/06/20 04:42:41;;;;;;;;;;;15.30;92.80;;;;;;5034182;28;19932;-69
2021/06/20 04:45:07;;;;;;;;;;;15.30;92.90;;;;;;5033604;28;20025;-68
2021/06/20 04:47:32;;;;;;;;;;;15.30;93.00;;;;;;5033275;28;20369;-69
2021/06/20 04:49:58;;;;;;;;;;;15.30;92.90;;;;;;5034581;28;19972;-68
2021/06/20 04:52:23;;;;;;;;;;;15.30;92.90;;;;;;5034070;28;19920;-69
2021/06/20 04:54:49;;;;;;;;;;;15.30;92.80;;;;;;5033542;28;19937;-69
2021/06/20 04:57:25;;;;;;;;;;;15.40;92.80;;;;;;5033110;28;19945;-69
2021/06/20 04:59:51;;;;;;;;;;;15.40;93.10;;;;;;5034378;28;19962;-69
2021/06/20 05:02:17;;;;;;;;;;;15.40;93.20;;;;;;5032670;28;19975;-69
2021/06/20 05:04:42;;;;;;;;;;;15.40;93.30;;;;;;5034404;28;19945;-69
2021/06/20 05:07:08;;;;;;;;;;;15.40;93.30;;;;;;5034764;28;20091;-69
2021/06/20 05:09:34;;;;;;;;;;;15.40;93.30;;;;;;5033981;28;20313;-69
2021/06/20 05:11:59;;;;;;;;;;;15.40;93.20;;;;;;5033719;28;19926;-68
2021/06/20 05:14:25;;;;;;;;;;;15.50;92.90;;;;;;5034205;28;19925;-69
2021/06/20 05:16:50;;;;;;;;;;;15.60;92.80;;;;;;5033815;28;20386;-69
2021/06/20 05:19:16;;;;;;;;;;;15.60;92.90;;;;;;5033892;28;19928;-69
2021/06/20 05:21:42;;;;;;;;;;;15.60;93.00;;;;;;5033368;28;19925;-69
2021/06/20 05:24:07;;;;;;;;;;;15.60;92.90;;;;;;5032598;28;20437;-69
2021/06/20 05:26:33;;;;;;;;;;;15.60;92.80;;;;;;5033733;28;20008;-69
2021/06/20 05:28:58;;;;;;;;;;;15.70;92.90;;;;;;5033691;28;20364;-68
2021/06/20 05:31:24;;;;;;;;;;;15.60;93.20;;;;;;5033466;28;19924;-69
2021/06/20 05:33:49;;;;;;;;;;;15.60;93.10;;;;;;5033478;28;19934;-69
2021/06/20 05:36:15;;;;;;;;;;;15.60;93.10;;;;;;5033553;28;20395;-69
2021/06/20 05:38:40;;;;;;;;;;;15.70;93.00;;;;;;5033425;28;19930;-69
2021/06/20 05:41:06;;;;;;;;;;;15.80;93.00;;;;;;5033033;28;19964;-69
2021/06/20 05:43:32;;;;;;;;;;;15.80;92.70;;;;;;5032218;28;20017;-69
2021/06/20 05:45:57;;;;;;;;;;;15.90;92.60;;;;;;5032251;28;19948;-69
2021/06/20 05:48:22;;;;;;;;;;;16.00;92.50;;;;;;5033229;28;19971;-69
2021/06/20 05:50:48;;;;;;;;;;;16.10;92.50;;;;;;5032039;28;20063;-69
2021/06/20 05:53:13;;;;;;;;;;;16.10;92.50;;;;;;5031944;28;19919;-69
2021/06/20 05:55:39;;;;;;;;;;;16.10;92.70;;;;;;5033402;28;19935;-69
2021/06/20 05:58:05;;;;;;;;;;;16.10;92.60;;;;;;5048225;28;20018;-69
2021/06/20 06:00:30;;;;;;;;;;;16.20;92.40;;;;;;5033120;28;19924;-69
2021/06/20 06:02:59;;;;;;;;;;;16.30;92.40;;;;;;5032772;28;19930;-69
2021/06/20 06:05:25;;;;;;;;;;;16.40;92.50;;;;;;5033289;28;20327;-69
2021/06/20 06:07:50;;;;;;;;;;;16.60;92.40;;;;;;5031804;28;20021;-69
2021/06/20 06:10:16;;;;;;;;;;;16.70;92.30;;;;;;5033248;28;19923;-69
2021/06/20 06:12:41;;;;;;;;;;;16.80;92.10;;;;;;5033532;28;19979;-70
2021/06/20 06:15:07;;;;;;;;;;;17.00;91.80;;;;;;5031698;28;19944;-69
2021/06/20 06:17:32;;;;;;;;;;;17.00;91.70;;;;;;5032448;28;19935;-69
2021/06/20 06:19:58;;;;;;;;;;;17.00;91.60;;;;;;5032380;28;19945;-69
2021/06/20 06:22:23;;;;;;;;;;;17.00;91.70;;;;;;5032231;28;19950;-69
2021/06/20 06:24:49;;;;;;;;;;;17.00;91.70;;;;;;5033055;28;20419;-69
2021/06/20 06:27:15;;;;;;;;;;;17.10;91.70;;;;;;5031590;28;19930;-69
2021/06/20 06:29:40;;;;;;;;;;;17.20;91.70;;;;;;5031917;28;19924;-69
2021/06/20 06:32:06;;;;;;;;;;;17.20;91.50;;;;;;5030732;28;19973;-69
2021/06/20 06:34:32;;;;;;;;;;;17.20;91.50;;;;;;5032927;28;19946;-69
2021/06/20 06:36:58;;;;;;;;;;;17.30;91.50;;;;;;5032923;28;20032;-69
2021/06/20 06:39:25;;;;;;;;;;;17.30;91.50;;;;;;5032360;28;19937;-69
2021/06/20 06:41:51;;;;;;;;;;;17.50;91.40;;;;;;5032323;28;19934;-69
2021/06/20 06:44:16;;;;;;;;;;;17.60;91.20;;;;;;5032590;28;19946;-69
2021/06/20 06:46:42;;;;;;;;;;;17.70;91.10;;;;;;5032310;28;19922;-70
2021/06/20 06:49:07;;;;;;;;;;;17.70;90.80;;;;;;5031767;28;19925;-69
2021/06/20 06:51:33;;;;;;;;;;;17.70;90.90;;;;;;5032367;28;20413;-69
2021/06/20 06:53:58;;;;;;;;;;;17.70;90.60;;;;;;5031190;28;20031;-69
2021/06/20 06:56:24;;;;;;;;;;;17.60;91.00;;;;;;5033257;28;19944;-69
2021/06/20 06:58:49;;;;;;;;;;;17.60;90.90;;;;;;5030376;28;19979;-69
2021/06/20 07:01:15;;;;;;;;;;;17.40;91.10;;;;;;5030975;28;19923;-69
2021/06/20 07:03:40;;;;;;;;;;;17.40;91.10;;;;;;5032310;28;19927;-69
2021/06/20 07:06:06;;;;;;;;;;;17.50;91.30;;;;;;5032346;28;19986;-69
2021/06/20 07:08:31;;;;;;;;;;;17.50;91.10;;;;;;5034151;28;19952;-69
2021/06/20 07:10:57;;;;;;;;;;;17.60;91.10;;;;;;5031522;28;19924;-69
2021/06/20 07:13:22;;;;;;;;;;;17.70;90.70;;;;;;5030642;28;20039;-69
2021/06/20 07:15:48;;;;;;;;;;;17.90;90.80;;;;;;5031804;28;20050;-69
2021/06/20 07:18:15;;;;;;;;;;;17.90;90.40;;;;;;5031855;28;19932;-69
2021/06/20 07:20:40;;;;;;;;;;;18.00;90.00;;;;;;5031851;28;19936;-69
2021/06/20 07:23:06;;;;;;;;;;;18.00;90.20;;;;;;5031382;28;19955;-69
2021/06/20 07:25:31;;;;;;;;;;;17.90;90.20;;;;;;5032107;28;19952;-69
2021/06/20 07:27:57;;;;;;;;;;;17.80;90.20;;;;;;5032049;28;19978;-69
2021/06/20 07:30:22;;;;;;;;;;;17.80;90.20;;;;;;5031936;28;19930;-69
2021/06/20 07:32:48;;;;;;;;;;;17.70;90.40;;;;;;5031087;28;20336;-69
2021/06/20 07:35:14;;;;;;;;;;;17.70;90.60;;;;;;5030785;28;20472;-69
2021/06/20 07:37:39;;;;;;;;;;;17.80;90.70;;;;;;5031151;28;19929;-69
2021/06/20 07:40:06;;;;;;;;;;;17.90;90.10;;;;;;5031582;28;19933;-69
2021/06/20 07:42:31;;;;;;;;;;;18.10;90.40;;;;;;5031804;28;19933;-70
2021/06/20 07:44:57;;;;;;;;;;;18.30;90.00;;;;;;5030855;28;20320;-69
2021/06/20 07:47:22;;;;;;;;;;;18.20;89.10;;;;;;5031992;28;19928;-70
2021/06/20 07:49:48;;;;;;;;;;;18.30;88.80;;;;;;5031902;28;20014;-70
2021/06/20 07:52:13;;;;;;;;;;;18.30;89.70;;;;;;5031697;28;19928;-69
2021/06/20 07:54:42;;;;;;;;;;;18.50;87.80;;;;;;5032126;28;19928;-69
2021/06/20 07:57:08;;;;;;;;;;;18.60;86.70;;;;;;5031776;28;19947;-69
2021/06/20 07:59:33;;;;;;;;;;;18.60;87.50;;;;;;5030761;28;19923;-69
2021/06/20 08:01:59;;;;;;;;;;;18.70;87.50;;;;;;5035157;28;20009;-70
2021/06/20 08:04:24;;;;;;;;;;;19.10;86.70;;;;;;5035307;28;19942;-69
2021/06/20 08:06:50;;;;;;;;;;;19.30;86.10;;;;;;5035340;28;19921;-69
2021/06/20 08:09:18;;;;;;;;;;;19.40;85.30;;;;;;5035094;28;20396;-69
2021/06/20 08:11:43;;;;;;;;;;;19.30;85.50;;;;;;5034990;28;19929;-69
2021/06/20 08:14:09;;;;;;;;;;;19.10;85.50;;;;;;5034903;28;20271;-69
2021/06/20 08:16:34;;;;;;;;;;;18.90;86.40;;;;;;5035235;28;19925;-69
2021/06/20 08:19:00;;;;;;;;;;;18.70;88.30;;;;;;5033815;28;20376;-69
2021/06/20 08:21:25;;;;;;;;;;;18.60;87.40;;;;;;5034673;28;20310;-69
2021/06/20 08:23:51;;;;;;;;;;;18.60;88.00;;;;;;5033435;28;19953;-69
2021/06/20 08:26:17;;;;;;;;;;;18.40;88.60;;;;;;5033771;28;20329;-69
2021/06/20 08:28:42;;;;;;;;;;;18.40;89.30;;;;;;5033704;28;20371;-69
2021/06/20 08:31:08;;;;;;;;;;;18.40;88.90;;;;;;5034651;28;19925;-69
2021/06/20 08:33:33;;;;;;;;;;;18.50;88.30;;;;;;5033247;28;20380;-69
2021/06/20 08:35:59;;;;;;;;;;;18.50;88.10;;;;;;5034950;28;20342;-69
2021/06/20 08:38:25;;;;;;;;;;;18.40;86.90;;;;;;5034998;28;19924;-69
2021/06/20 08:40:50;;;;;;;;;;;18.40;88.70;;;;;;5034270;28;19926;-69
2021/06/20 08:43:16;;;;;;;;;;;18.40;89.20;;;;;;5034357;28;19929;-69
2021/06/20 08:45:41;;;;;;;;;;;18.50;88.70;;;;;;5035039;28;19992;-69
2021/06/20 08:48:10;;;;;;;;;;;18.50;88.50;;;;;;5034600;28;19920;-69
2021/06/20 08:50:35;;;;;;;;;;;18.40;88.10;;;;;;5033389;28;19932;-69
2021/06/20 08:53:01;;;;;;;;;;;18.40;88.90;;;;;;5034581;28;20329;-69
2021/06/20 08:55:26;;;;;;;;;;;18.40;89.60;;;;;;5034550;28;20379;-69
2021/06/20 08:57:59;;;;;;;;;;;18.40;89.40;;;;;;5034371;28;19934;-69
2021/06/20 09:00:25;;;;;;;;;;;18.50;89.10;;;;;;5033988;28;19927;-69
2021/06/20 09:02:57;;;;;;;;;;;18.50;89.30;;;;;;5033891;28;19932;-70
2021/06/20 09:05:23;;;;;;;;;;;18.50;88.00;;;;;;5033079;28;19994;-69
2021/06/20 09:07:48;;;;;;;;;;;18.40;89.20;;;;;;5032971;28;19959;-70
2021/06/20 09:10:16;;;;;;;;;;;18.40;89.20;;;;;;5033556;28;20239;-69
2021/06/20 09:12:42;;;;;;;;;;;18.40;89.50;;;;;;5033624;28;19926;-69
2021/06/20 09:15:08;;;;;;;;;;;18.40;89.30;;;;;;5034065;28;20013;-69
2021/06/20 09:17:33;;;;;;;;;;;18.40;89.00;;;;;;5033859;28;19975;-69
2021/06/20 09:19:59;;;;;;;;;;;18.60;89.00;;;;;;5032694;28;19930;-69
2021/06/20 09:22:25;;;;;;;;;;;18.70;88.00;;;;;;5031997;28;19954;-69
2021/06/20 09:24:57;;;;;;;;;;;18.60;88.50;;;;;;5032752;28;20006;-69
2021/06/20 09:27:23;;;;;;;;;;;18.70;88.90;;;;;;5033931;28;20299;-69
2021/06/20 09:29:48;;;;;;;;;;;18.70;87.80;;;;;;5033631;28;19936;-70
2021/06/20 09:32:14;;;;;;;;;;;18.70;88.40;;;;;;5032078;28;20014;-69
2021/06/20 09:34:40;;;;;;;;;;;18.70;88.50;;;;;;5033465;28;19929;-69
2021/06/20 09:37:05;;;;;;;;;;;18.70;88.70;;;;;;5016047;28;20419;-69
2021/06/20 09:39:31;;;;;;;;;;;18.70;88.00;;;;;;5033490;28;19964;-69
2021/06/20 09:41:56;;;;;;;;;;;18.70;88.60;;;;;;5033289;28;19923;-69
2021/06/20 09:44:37;;;;;;;;;;;18.60;89.00;;;;;;5033451;28;19950;-69
2021/06/20 09:47:03;;;;;;;;;;;18.70;89.10;;;;;;5033519;28;20391;-69
2021/06/20 09:49:29;;;;;;;;;;;18.60;89.30;;;;;;5032260;28;19970;-69
2021/06/20 09:51:55;;;;;;;;;;;18.60;89.20;;;;;;5032011;28;20026;-69
2021/06/20 09:54:30;;;;;;;;;;;18.60;89.60;;;;;;5032237;28;19966;-69
2021/06/20 09:56:56;;;;;;;;;;;18.60;89.80;;;;;;5031976;28;20028;-69
2021/06/20 09:59:28;;;;;;;;;;;18.70;89.70;;;;;;5033333;28;20004;-69
2021/06/20 10:01:54;;;;;;;;;;;18.60;89.70;;;;;;5031829;28;19988;-69
2021/06/20 10:04:19;;;;;;;;;;;18.60;89.80;;;;;;5033115;28;20392;-69
2021/06/20 10:06:45;;;;;;;;;;;18.60;89.80;;;;;;5031853;28;19925;-69
2021/06/20 10:09:11;;;;;;;;;;;18.50;89.70;;;;;;5031532;28;20425;-69
2021/06/20 10:11:36;;;;;;;;;;;18.60;89.90;;;;;;5031606;28;19923;-69
2021/06/20 10:14:02;;;;;;;;;;;18.60;89.70;;;;;;5032897;28;19922;-70
2021/06/20 10:16:37;;;;;;;;;;;18.70;89.50;;;;;;5033033;28;19924;-69
2021/06/20 10:19:24;;;;;;;;;;;18.80;88.90;;;;;;5031575;28;19925;-69
2021/06/20 10:22:07;;;;;;;;;;;18.90;89.00;;;;;;5032111;28;19982;-70
2021/06/20 10:24:42;;;;;;;;;;;19.10;88.20;;;;;;5031360;28;19948;-70
2021/06/20 10:27:09;;;;;;;;;;;19.20;87.60;;;;;;5031729;28;20385;-69
2021/06/20 10:29:36;;;;;;;;;;;19.30;87.70;;;;;;5047990;28;19929;-69
2021/06/20 10:32:13;;;;;;;;;;;19.40;87.70;;;;;;5031287;28;20410;-69
2021/06/20 10:34:38;;;;;;;;;;;19.50;87.40;;;;;;5031292;28;19980;-69
2021/06/20 10:37:07;;;;;;;;;;;19.60;87.00;;;;;;5031470;28;20421;-69
2021/06/20 10:39:32;;;;;;;;;;;19.60;85.70;;;;;;5031330;28;19930;-69
2021/06/20 10:42:08;;;;;;;;;;;19.60;86.90;;;;;;5032579;28;19924;-69
2021/06/20 10:44:44;;;;;;;;;;;19.70;86.30;;;;;;5031336;28;19939;-69
2021/06/20 10:47:09;;;;;;;;;;;19.70;85.70;;;;;;5032578;28;20335;-69
2021/06/20 10:49:36;;;;;;;;;;;19.70;86.50;;;;;;5032379;28;19964;-69
2021/06/20 10:52:13;;;;;;;;;;;19.80;86.60;;;;;;5032293;28;19927;-69
2021/06/20 10:54:38;;;;;;;;;;;20.00;85.60;;;;;;5031331;28;19926;-69
2021/06/20 10:57:04;;;;;;;;;;;20.30;85.70;;;;;;5032430;28;20119;-69
2021/06/20 10:59:29;;;;;;;;;;;20.50;84.60;;;;;;5032367;28;20380;-69
2021/06/20 11:01:55;;;;;;;;;;;20.60;84.20;;;;;;5030949;28;20309;-69
2021/06/20 11:04:20;;;;;;;;;;;20.90;83.40;;;;;;5032291;28;19953;-69
2021/06/20 11:06:53;;;;;;;;;;;20.90;82.00;;;;;;5032436;28;19920;-69
2021/06/20 11:09:20;;;;;;;;;;;20.90;81.60;;;;;;5032063;28;20407;-69
2021/06/20 11:11:50;;;;;;;;;;;21.10;83.50;;;;;;5030932;28;19932;-69
2021/06/20 11:14:15;;;;;;;;;;;21.30;83.40;;;;;;5032145;28;19923;-69
2021/06/20 11:16:41;;;;;;;;;;;21.50;81.70;;;;;;5032368;28;20436;-69
2021/06/20 11:19:09;;;;;;;;;;;21.50;82.60;;;;;;5032164;28;19923;-69
2021/06/20 11:21:35;;;;;;;;;;;21.60;81.70;;;;;;5032015;28;19925;-69
2021/06/20 11:24:01;;;;;;;;;;;21.60;81.90;;;;;;5031577;28;20471;-69
2021/06/20 11:26:26;;;;;;;;;;;21.70;82.10;;;;;;5030917;28;19994;-69
2021/06/20 11:29:07;;;;;;;;;;;21.80;80.60;;;;;;5032258;28;19929;-69
2021/06/20 11:31:46;;;;;;;;;;;22.00;81.70;;;;;;5031077;28;19922;-70
2021/06/20 11:34:11;;;;;;;;;;;22.20;80.10;;;;;;5033071;28;19929;-69
2021/06/20 11:36:37;;;;;;;;;;;22.30;79.10;;;;;;5036111;28;20007;-69
2021/06/20 11:39:06;;;;;;;;;;;22.30;81.00;;;;;;5035866;28;20010;-69
2021/06/20 11:41:38;;;;;;;;;;;22.20;80.40;;;;;;5014926;28;20299;-70
2021/06/20 11:44:04;;;;;;;;;;;22.10;80.00;;;;;;5014668;28;20486;-70
2021/06/20 11:46:30;;;;;;;;;;;21.90;82.00;;;;;;5014488;28;20050;-69
2021/06/20 11:49:06;;;;;;;;;;;21.80;81.00;;;;;;5015987;28;19931;-69
2021/06/20 11:51:38;;;;;;;;;;;21.90;81.30;;;;;;5015867;28;20343;-69
2021/06/20 11:54:06;;;;;;;;;;;21.80;81.30;;;;;;5015828;28;20304;-69
2021/06/20 11:56:32;;;;;;;;;;;21.70;81.10;;;;;;5015760;28;20032;-70
2021/06/20 11:58:58;;;;;;;;;;;21.80;81.60;;;;;;5015752;28;20016;-69
2021/06/20 12:01:25;;;;;;;;;;;21.90;81.70;;;;;;5015709;28;19979;-70
2021/06/20 12:03:52;;;;;;;;;;;22.10;81.20;;;;;;5015623;28;19933;-70
2021/06/20 12:06:18;;;;;;;;;;;22.00;79.70;;;;;;5014325;28;19948;-69
2021/06/20 12:08:43;;;;;;;;;;;21.90;80.60;;;;;;5014231;28;19937;-69
2021/06/20 12:11:09;;;;;;;;;;;21.80;81.20;;;;;;5014280;28;19926;-70
2021/06/20 12:13:41;;;;;;;;;;;21.70;81.70;;;;;;5014076;28;20345;-69
2021/06/20 12:16:06;;;;;;;;;;;21.70;80.00;;;;;;5014384;28;19923;-70
2021/06/20 12:18:32;;;;;;;;;;;21.70;78.20;;;;;;5015436;28;19923;-70
2021/06/20 12:20:57;;;;;;;;;;;21.80;80.30;;;;;;5015176;28;19929;-69
2021/06/20 12:23:33;;;;;;;;;;;21.80;79.60;;;;;;5014917;28;20059;-69
2021/06/20 12:25:58;;;;;;;;;;;21.80;81.00;;;;;;5030497;28;19958;-69
2021/06/20 12:28:24;;;;;;;;;;;21.80;79.60;;;;;;5014062;28;19927;-69
2021/06/20 12:30:50;;;;;;;;;;;21.60;80.70;;;;;;5013954;28;19977;-69
2021/06/20 12:33:19;;;;;;;;;;;21.50;80.80;;;;;;5013530;28;20243;-69
2021/06/20 12:35:46;;;;;;;;;;;21.60;80.70;;;;;;5014014;28;19947;-69
2021/06/20 12:38:15;;;;;;;;;;;21.90;79.40;;;;;;5013922;28;20472;-69
2021/06/20 12:40:41;;;;;;;;;;;22.00;79.80;;;;;;5027956;28;19932;-69
2021/06/20 12:43:06;;;;;;;;;;;22.00;79.70;;;;;;5034569;28;19930;-69
2021/06/20 12:45:33;;;;;;;;;;;22.00;78.80;;;;;;5032515;28;19971;-69
2021/06/20 12:47:58;;;;;;;;;;;22.00;79.60;;;;;;5035017;28;20338;-70
2021/06/20 12:50:25;;;;;;;;;;;22.00;77.10;;;;;;5033498;28;19983;-69
2021/06/20 12:52:50;;;;;;;;;;;22.00;78.10;;;;;;5033185;28;20017;-70
2021/06/20 12:55:19;;;;;;;;;;;22.00;76.90;;;;;;5034701;28;19967;-69
2021/06/20 12:57:51;;;;;;;;;;;21.90;77.30;;;;;;5033216;28;20392;-69
2021/06/20 13:00:19;;;;;;;;;;;21.90;78.80;;;;;;5033221;28;19922;-69
2021/06/20 13:02:48;;;;;;;;;;;21.80;79.50;;;;;;5032965;28;19930;-70
2021/06/20 13:05:14;;;;;;;;;;;21.60;79.70;;;;;;5034455;28;19942;-69
2021/06/20 13:07:40;;;;;;;;;;;21.40;80.40;;;;;;5034351;28;19923;-69
2021/06/20 13:10:06;;;;;;;;;;;21.50;81.10;;;;;;5034046;28;20383;-69
2021/06/20 13:12:32;;;;;;;;;;;21.50;78.90;;;;;;5033008;28;20335;-69
2021/06/20 13:14:57;;;;;;;;;;;21.40;79.60;;;;;;5033102;28;19972;-69
2021/06/20 13:17:23;;;;;;;;;;;21.50;81.00;;;;;;5034159;28;20278;-69
2021/06/20 13:19:48;;;;;;;;;;;21.60;78.90;;;;;;5034105;28;19929;-69
2021/06/20 13:22:14;;;;;;;;;;;21.60;79.70;;;;;;5033662;28;20422;-69
2021/06/20 13:24:39;;;;;;;;;;;21.40;80.30;;;;;;5032729;28;20425;-70
2021/06/20 13:27:05;;;;;;;;;;;21.40;81.10;;;;;;5033942;28;20008;-69
2021/06/20 13:29:31;;;;;;;;;;;21.30;79.10;;;;;;5032707;28;20073;-69
2021/06/20 13:31:56;;;;;;;;;;;21.20;79.30;;;;;;5033904;28;19968;-70
2021/06/20 13:34:22;;;;;;;;;;;21.20;79.10;;;;;;5033666;28;20054;-70
2021/06/20 13:36:47;;;;;;;;;;;21.30;79.10;;;;;;5033613;28;19928;-69
2021/06/20 13:39:13;;;;;;;;;;;21.30;79.50;;;;;;5032547;28;19922;-69
2021/06/20 13:41:39;;;;;;;;;;;21.40;78.90;;;;;;5033602;28;20264;-70
2021/06/20 13:44:05;;;;;;;;;;;21.40;77.90;;;;;;5032433;28;19928;-69
2021/06/20 13:46:30;;;;;;;;;;;21.30;76.10;;;;;;5033099;28;19974;-69
2021/06/20 13:48:56;;;;;;;;;;;21.20;78.30;;;;;;5032361;28;19923;-69
2021/06/20 13:51:21;;;;;;;;;;;21.20;78.50;;;;;;5033444;28;20381;-69
2021/06/20 13:53:47;;;;;;;;;;;21.20;78.50;;;;;;5032260;28;19921;-69
2021/06/20 13:56:12;;;;;;;;;;;21.20;78.70;;;;;;5033347;28;19944;-70
2021/06/20 13:58:38;;;;;;;;;;;21.20;79.10;;;;;;5033127;28;20466;-69
2021/06/20 14:01:03;;;;;;;;;;;21.30;79.30;;;;;;5031910;28;19929;-69
2021/06/20 14:03:29;;;;;;;;;;;21.40;79.00;;;;;;5033087;28;19928;-70
2021/06/20 14:05:56;;;;;;;;;;;21.60;76.60;;;;;;5032103;28;19950;-70
2021/06/20 14:08:22;;;;;;;;;;;21.60;78.00;;;;;;5031960;28;19966;-69
2021/06/20 14:10:47;;;;;;;;;;;21.70;78.50;;;;;;5031681;28;19932;-70